Time;durP1;ratioP1;P1;durP2;ratioP2;P2;SDS_P1;SDS_P2;PMS_P1;PMS_P2;Temp;Humidity;BMP_temperature;BMP_pressure;BME280_temperature;BME280_humidity;BME280_pressure;Samples;Min_cycle;Max_cycle;Signal;HPM_P1;HPM_P2
2021/01/06 00:01:08;;;;;;;;;;;;;;;-147.53;100.00;59759.91;4867876;29;19916;-85
2021/01/06 00:03:33;;;;;;;;;;;;;;;-147.53;100.00;59759.91;4850604;29;20286;-85
2021/01/06 00:06:00;;;;;;;;;;;;;;;-147.53;100.00;59759.91;4850977;29;19977;-86
2021/01/06 00:08:26;;;;;;;;;;;;;;;-147.53;100.00;59759.91;4851311;29;19916;-86
2021/01/06 00:10:55;;;;;;;;;;;;;;;-147.53;100.00;59759.91;4851505;29;19923;-85
2021/01/06 00:13:20;;;;;;;;;;;;;;;-147.53;100.00;59759.91;4851600;29;19992;-85
2021/01/06 00:15:46;;;;;;;;;;;;;;;-147.53;100.00;59759.91;4851774;29;20371;-85
2021/01/06 00:18:12;;;;;;;;;;;;;;;-147.53;100.00;59759.91;4851779;29;19958;-85
2021/01/06 00:20:37;;;;;;;;;;;;;;;-147.53;100.00;59759.91;4851921;29;20003;-85
2021/01/06 00:23:02;;;;;;;;;;;;;;;-147.53;100.00;59759.91;4853099;29;20429;-84
2021/01/06 00:25:29;;;;;;;;;;;;;;;-147.53;100.00;59759.91;4869965;29;19920;-85
2021/01/06 00:27:54;;;;;;;;;;;;;;;-147.53;100.00;59759.91;4852787;29;20113;-85
2021/01/06 00:30:22;;;;;;;;;;;;;;;-147.53;100.00;59759.91;4868535;29;19955;-85
2021/01/06 00:32:47;;;;;;;;;;;;;;;-147.53;100.00;59759.91;4852387;29;19996;-85
2021/01/06 00:35:12;;;;;;;;;;;;;;;-147.53;100.00;59759.91;4851274;29;19972;-84
2021/01/06 00:37:38;;;;;;;;;;;;;;;-147.53;100.00;59759.91;4852437;29;19916;-84
2021/01/06 00:40:03;;;;;;;;;;;;;;;-147.53;100.00;59759.91;4854042;29;20252;-84
2021/01/06 00:42:29;;;;;;;;;;;;;;;-147.53;100.00;59759.91;4853363;29;19923;-85
2021/01/06 00:44:54;;;;;;;;;;;;;;;-147.53;100.00;59759.91;4869418;29;19919;-85
2021/01/06 00:47:19;;;;;;;;;;;;;;;-147.53;100.00;59759.91;4869814;29;20023;-84
2021/01/06 00:49:44;;;;;;;;;;;;;;;-147.53;100.00;59759.91;4853409;29;19916;-85
2021/01/06 00:52:10;;;;;;;;;;;;;;;-147.53;100.00;59759.91;4870681;29;19920;-85
2021/01/06 00:54:36;;;;;;;;;;;;;;;-147.53;100.00;59759.91;4854247;29;19932;-85
2021/01/06 00:57:02;;;;;;;;;;;;;;;-147.53;100.00;59759.91;4853237;29;19954;-85
2021/01/06 00:59:27;;;;;;;;;;;;;;;-147.53;100.00;59759.91;4853105;29;19928;-84
2021/01/06 01:01:52;;;;;;;;;;;;;;;-147.53;100.00;59759.91;4869666;29;19922;-85
2021/01/06 01:04:18;;;;;;;;;;;;;;;-147.53;100.00;59759.91;4853109;29;20010;-85
2021/01/06 01:06:43;;;;;;;;;;;;;;;-147.53;100.00;59759.91;4869732;29;19958;-85
2021/01/06 01:09:08;;;;;;;;;;;;;;;-147.53;100.00;59759.91;4869998;29;19916;-85
2021/01/06 01:11:37;;;;;;;;;;;;;;;-147.53;100.00;59759.91;4853189;29;19920;-85
2021/01/06 01:14:02;;;;;;;;;;;;;;;-147.53;100.00;59759.91;4870138;29;19916;-85
2021/01/06 01:16:27;;;;;;;;;;;;;;;-147.53;100.00;59759.91;4851916;29;20283;-85
2021/01/06 01:18:53;;;;;;;;;;;;;;;-147.53;100.00;59759.91;4852324;29;19916;-83
2021/01/06 01:21:19;;;;;;;;;;;;;;;-147.53;100.00;59759.91;4851764;29;20282;-84
2021/01/06 01:23:44;;;;;;;;;;;;;;;-147.53;100.00;59759.91;4851824;29;19912;-86
2021/01/06 01:26:10;;;;;;;;;;;;;;;-147.53;100.00;59759.91;4868536;29;20264;-85
2021/01/06 01:28:36;;;;;;;;;;;;;;;-147.53;100.00;59759.91;4851352;29;19927;-86
2021/01/06 01:31:01;;;;;;;;;;;;;;;-147.53;100.00;59759.91;4851699;29;19916;-84
2021/01/06 01:33:26;;;;;;;;;;;;;;;-147.53;100.00;59759.91;4851320;29;20002;-85
2021/01/06 01:35:52;;;;;;;;;;;;;;;-147.53;100.00;59759.91;4851172;29;19918;-86
2021/01/06 01:38:19;;;;;;;;;;;;;;;-147.53;100.00;59759.91;4851624;29;19923;-86
2021/01/06 01:40:45;;;;;;;;;;;;;;;-147.53;100.00;59759.91;4851536;29;19923;-86
2021/01/06 01:43:13;;;;;;;;;;;;;;;-147.53;100.00;59759.91;4851222;29;19939;-86
2021/01/06 01:45:38;;;;;;;;;;;;;;;-147.53;100.00;59759.91;4869607;29;19919;-85
2021/01/06 01:48:10;;;;;;;;;;;;;;;-147.53;100.00;59759.91;4856075;29;20378;-86
2021/01/06 01:50:36;;;;;;;;;;;;;;;-147.53;100.00;59759.91;4856430;29;19922;-86
2021/01/06 01:53:04;;;;;;;;;;;;;;;-147.53;100.00;59759.91;4856310;29;19955;-86
2021/01/06 01:55:30;;;;;;;;;;;;;;;-147.53;100.00;59759.91;4856100;29;19955;-85
2021/01/06 01:57:59;;;;;;;;;;;;;;;-147.53;100.00;59759.91;4854719;29;19968;-84
2021/01/06 02:00:27;;;;;;;;;;;;;;;-147.53;100.00;59759.91;4871160;29;19920;-85
2021/01/06 02:03:04;;;;;;;;;;;;;;;-147.53;100.00;59759.91;4854458;29;19964;-86
2021/01/06 02:05:33;;;;;;;;;;;;;;;-147.53;100.00;59759.91;4870906;29;20389;-85
2021/01/06 02:08:04;;;;;;;;;;;;;;;-147.53;100.00;59759.91;4855942;29;19941;-84
2021/01/06 02:10:34;;;;;;;;;;;;;;;-147.53;100.00;59759.91;4854377;29;19916;-85
2021/01/06 02:13:02;;;;;;;;;;;;;;;-147.53;100.00;59759.91;4855933;29;19923;-85
2021/01/06 02:15:27;;;;;;;;;;;;;;;-147.53;100.00;59759.91;4855363;29;19920;-86
2021/01/06 02:17:53;;;;;;;;;;;;;;;-147.53;100.00;59759.91;4853757;29;19963;-85
2021/01/06 02:20:20;;;;;;;;;;;;;;;-147.53;100.00;59759.91;4854348;29;19922;-85
2021/01/06 02:22:45;;;;;;;;;;;;;;;-147.53;100.00;59759.91;4871385;29;19919;-86
2021/01/06 02:25:11;;;;;;;;;;;;;;;-147.53;100.00;59759.91;4853891;29;20374;-86
2021/01/06 02:27:36;;;;;;;;;;;;;;;-147.53;100.00;59759.91;4870164;29;19933;-85
2021/01/06 02:30:02;;;;;;;;;;;;;;;-147.53;100.00;59759.91;4854264;29;20397;-86
2021/01/06 02:32:28;;;;;;;;;;;;;;;-147.53;100.00;59759.91;4870466;29;20370;-86
2021/01/06 02:34:53;;;;;;;;;;;;;;;-147.53;100.00;59759.91;4854487;29;19912;-86
2021/01/06 02:37:18;;;;;;;;;;;;;;;-147.53;100.00;59759.91;4854258;29;19999;-86
2021/01/06 02:39:43;;;;;;;;;;;;;;;-147.53;100.00;59759.91;4853667;29;19924;-85
2021/01/06 02:42:09;;;;;;;;;;;;;;;-147.53;100.00;59759.91;4853308;29;20267;-86
2021/01/06 02:44:34;;;;;;;;;;;;;;;-147.53;100.00;59759.91;4853651;29;20430;-86
2021/01/06 02:46:59;;;;;;;;;;;;;;;-147.53;100.00;59759.91;4870212;29;20012;-84
2021/01/06 02:49:25;;;;;;;;;;;;;;;-147.53;100.00;59759.91;4870748;29;19963;-86
2021/01/06 02:51:54;;;;;;;;;;;;;;;-147.53;100.00;59759.91;4854759;29;19923;-85
2021/01/06 02:54:21;;;;;;;;;;;;;;;-147.53;100.00;59759.91;4854976;29;19916;-85
2021/01/06 02:56:49;;;;;;;;;;;;;;;-147.53;100.00;59759.91;4869849;29;20027;-86
2021/01/06 02:59:14;;;;;;;;;;;;;;;-147.53;100.00;59759.91;4853394;29;19916;-85
2021/01/06 03:01:41;;;;;;;;;;;;;;;-147.53;100.00;59759.91;4869577;29;19923;-86
2021/01/06 03:04:11;;;;;;;;;;;;;;;-147.53;100.00;59759.91;4853523;29;19915;-86
2021/01/06 03:06:42;;;;;;;;;;;;;;;-147.53;100.00;59759.91;4853081;29;19916;-86
2021/01/06 03:09:20;;;;;;;;;;;;;;;-147.53;100.00;59759.91;4853061;29;20006;-86
2021/01/06 03:11:46;;;;;;;;;;;;;;;-147.53;100.00;59759.91;4853480;29;20389;-85
2021/01/06 03:14:11;;;;;;;;;;;;;;;-147.53;100.00;59759.91;4854053;29;19972;-86
2021/01/06 03:16:36;;;;;;;;;;;;;;;-147.53;100.00;59759.91;4869501;29;19912;-86
2021/01/06 03:19:02;;;;;;;;;;;;;;;-147.53;100.00;59759.91;4869514;29;19923;-85
2021/01/06 03:21:27;;;;;;;;;;;;;;;-147.53;100.00;59759.91;4853150;29;19924;-85
2021/01/06 03:23:54;;;;;;;;;;;;;;;-147.53;100.00;59759.91;4869496;29;19923;-84
2021/01/06 03:26:21;;;;;;;;;;;;;;;-147.53;100.00;59759.91;4869201;29;19916;-84
2021/01/06 03:28:47;;;;;;;;;;;;;;;-147.53;100.00;59759.91;4852283;29;19924;-84
2021/01/06 03:31:15;;;;;;;;;;;;;;;-147.53;100.00;59759.91;4868987;29;20350;-85
2021/01/06 03:33:45;;;;;;;;;;;;;;;-147.53;100.00;59759.91;4853973;29;19916;-85
2021/01/06 03:36:16;;;;;;;;;;;;;;;-147.53;100.00;59759.91;4871084;29;19916;-85
2021/01/06 03:38:45;;;;;;;;;;;;;;;-147.53;100.00;59759.91;4854263;29;20010;-85
2021/01/06 03:41:10;;;;;;;;;;;;;;;-147.53;100.00;59759.91;4854288;29;19995;-86
2021/01/06 03:43:40;;;;;;;;;;;;;;;-147.53;100.00;59759.91;4870610;29;19955;-85
2021/01/06 03:46:14;;;;;;;;;;;;;;;-147.53;100.00;59759.91;4870796;29;19916;-84
2021/01/06 03:48:44;;;;;;;;;;;;;;;-147.53;100.00;59759.91;4870652;29;19984;-84
2021/01/06 03:51:32;;;;;;;;;;;;;;;-147.53;100.00;59759.91;4852626;29;20015;-85
2021/01/06 03:54:00;;;;;;;;;;;;;;;-147.53;100.00;59759.91;4868660;29;19923;-85
2021/01/06 03:56:26;;;;;;;;;;;;;;;-147.53;100.00;59759.91;4869182;29;20362;-85
2021/01/06 03:59:04;;;;;;;;;;;;;;;-147.53;100.00;59759.91;4853115;29;19916;-85
2021/01/06 04:01:45;;;;;;;;;;;;;;;-147.53;100.00;59759.91;4870219;29;19913;-84
2021/01/06 04:04:31;;;;;;;;;;;;;;;-147.53;100.00;59759.91;4852682;29;19963;-85
2021/01/06 04:06:57;;;;;;;;;;;;;;;-147.53;100.00;59759.91;4852143;29;19916;-84
2021/01/06 04:09:26;;;;;;;;;;;;;;;-147.53;100.00;59759.91;4850908;29;19923;-84
2021/01/06 04:12:00;;;;;;;;;;;;;;;-147.53;100.00;59759.91;4868563;29;20339;-84
2021/01/06 04:14:25;;;;;;;;;;;;;;;-147.53;100.00;59759.91;4852703;29;19923;-85
2021/01/06 04:16:50;;;;;;;;;;;;;;;-147.53;100.00;59759.91;4853345;29;19963;-85
2021/01/06 04:19:16;;;;;;;;;;;;;;;-147.53;100.00;59759.91;4852414;29;19916;-85
2021/01/06 04:21:41;;;;;;;;;;;;;;;-147.53;100.00;59759.91;4851862;29;19940;-85
2021/01/06 04:24:08;;;;;;;;;;;;;;;-147.53;100.00;59759.91;4851854;29;20356;-85
2021/01/06 04:26:33;;;;;;;;;;;;;;;-147.53;100.00;59759.91;4852252;29;19924;-85
2021/01/06 04:28:58;;;;;;;;;;;;;;;-147.53;100.00;59759.91;4868519;29;19976;-86
2021/01/06 04:31:23;;;;;;;;;;;;;;;-147.53;100.00;59759.91;4851907;29;20389;-86
2021/01/06 04:33:51;;;;;;;;;;;;;;;-147.53;100.00;59759.91;4868368;29;19916;-85
2021/01/06 04:36:24;;;;;;;;;;;;;;;-147.53;100.00;59759.91;4851699;29;20041;-85
2021/01/06 04:38:50;;;;;;;;;;;;;;;-147.53;100.00;59759.91;4868277;29;19921;-85
2021/01/06 04:41:16;;;;;;;;;;;;;;;-147.53;100.00;59759.91;4851876;29;19916;-85
2021/01/06 04:43:49;;;;;;;;;;;;;;;-147.53;100.00;59759.91;4867958;29;19943;-85
2021/01/06 04:46:31;;;;;;;;;;;;;;;-147.53;100.00;59759.91;4851683;29;19916;-85
2021/01/06 04:49:06;;;;;;;;;;;;;;;-147.53;100.00;59759.91;4851981;29;19916;-84
2021/01/06 04:51:46;;;;;;;;;;;;;;;-147.53;100.00;59759.91;4852021;29;19916;-85
2021/01/06 04:54:30;;;;;;;;;;;;;;;-147.53;100.00;59759.91;4851866;29;19918;-86
2021/01/06 04:57:04;;;;;;;;;;;;;;;-147.53;100.00;59759.91;4868768;29;19989;-85
2021/01/06 04:59:36;;;;;;;;;;;;;;;-147.53;100.00;59759.91;4837064;29;19924;-85
2021/01/06 05:02:10;;;;;;;;;;;;;;;-147.53;100.00;59759.91;4852030;29;20328;-85
2021/01/06 05:04:41;;;;;;;;;;;;;;;-147.53;100.00;59759.91;4868572;29;19916;-85
2021/01/06 05:07:19;;;;;;;;;;;;;;;-147.53;100.00;59759.91;4852096;29;19920;-85
2021/01/06 05:09:48;;;;;;;;;;;;;;;-147.53;100.00;59759.91;4868177;29;19972;-84
2021/01/06 05:12:19;;;;;;;;;;;;;;;-147.53;100.00;59759.91;4851553;29;20003;-84
2021/01/06 05:15:03;;;;;;;;;;;;;;;-147.53;100.00;59759.91;4850124;29;19995;-85
2021/01/06 05:17:29;;;;;;;;;;;;;;;-147.53;100.00;59759.91;4849893;29;19955;-85
2021/01/06 05:19:54;;;;;;;;;;;;;;;-147.53;100.00;59759.91;4866478;29;19916;-85
2021/01/06 05:22:20;;;;;;;;;;;;;;;-147.53;100.00;59759.91;4853294;29;20052;-85
2021/01/06 05:24:47;;;;;;;;;;;;;;;-147.53;100.00;59759.91;4869921;29;19923;-85
2021/01/06 05:27:12;;;;;;;;;;;;;;;-147.53;100.00;59759.91;4869880;29;19991;-85
2021/01/06 05:29:38;;;;;;;;;;;;;;;-147.53;100.00;59759.91;4869512;29;19928;-85
2021/01/06 05:32:04;;;;;;;;;;;;;;;-147.53;100.00;59759.91;4853632;29;20374;-84
2021/01/06 05:34:34;;;;;;;;;;;;;;;-147.53;100.00;59759.91;4870033;29;19916;-85
2021/01/06 05:36:59;;;;;;;;;;;;;;;-147.53;100.00;59759.91;4853351;29;20275;-85
2021/01/06 05:39:27;;;;;;;;;;;;;;;-147.53;100.00;59759.91;4853353;29;20370;-85
2021/01/06 05:41:54;;;;;;;;;;;;;;;-147.53;100.00;59759.91;4870389;29;20003;-85
2021/01/06 05:44:19;;;;;;;;;;;;;;;-147.53;100.00;59759.91;4870943;29;20389;-85
2021/01/06 05:46:45;;;;;;;;;;;;;;;-147.53;100.00;59759.91;4853760;29;19916;-86
2021/01/06 05:49:13;;;;;;;;;;;;;;;-147.53;100.00;59759.91;4870803;29;20335;-86
2021/01/06 05:51:42;;;;;;;;;;;;;;;-147.53;100.00;59759.91;4854230;29;19920;-84
2021/01/06 05:54:14;;;;;;;;;;;;;;;-147.53;100.00;59759.91;4854068;29;19927;-85
2021/01/06 05:56:50;;;;;;;;;;;;;;;-147.53;100.00;59759.91;4853938;29;20367;-84
2021/01/06 05:59:17;;;;;;;;;;;;;;;-147.53;100.00;59759.91;4870770;29;19920;-84
2021/01/06 06:01:56;;;;;;;;;;;;;;;-147.53;100.00;59759.91;4870192;29;19916;-84
2021/01/06 06:04:43;;;;;;;;;;;;;;;-147.53;100.00;59759.91;4853810;29;19995;-85
2021/01/06 06:07:27;;;;;;;;;;;;;;;-147.53;100.00;59759.91;4870292;29;19920;-84
2021/01/06 06:10:11;;;;;;;;;;;;;;;-147.53;100.00;59759.91;4853816;29;19923;-84
2021/01/06 06:12:36;;;;;;;;;;;;;;;-147.53;100.00;59759.91;4853914;29;20059;-84
2021/01/06 06:15:20;;;;;;;;;;;;;;;-147.53;100.00;59759.91;4853971;29;19959;-84
2021/01/06 06:17:54;;;;;;;;;;;;;;;-147.53;100.00;59759.91;4870369;29;19912;-85
2021/01/06 06:20:29;;;;;;;;;;;;;;;-147.53;100.00;59759.91;4853712;29;19983;-84
2021/01/06 06:23:01;;;;;;;;;;;;;;;-147.53;100.00;59759.91;4853431;29;19916;-86
2021/01/06 06:25:30;;;;;;;;;;;;;;;-147.53;100.00;59759.91;4870079;29;19916;-85
2021/01/06 06:28:01;;;;;;;;;;;;;;;-147.53;100.00;59759.91;4865451;29;19927;-85
2021/01/06 06:30:32;;;;;;;;;;;;;;;-147.53;100.00;59759.91;4869788;29;19920;-85
2021/01/06 06:32:58;;;;;;;;;;;;;;;-147.53;100.00;59759.91;4852680;29;19979;-86
2021/01/06 06:35:27;;;;;;;;;;;;;;;-147.53;100.00;59759.91;4853774;29;19962;-85
2021/01/06 06:37:56;;;;;;;;;;;;;;;-147.53;100.00;59759.91;4850846;29;20363;-85
2021/01/06 06:40:21;;;;;;;;;;;;;;;-147.53;100.00;59759.91;4846785;29;19927;-85
2021/01/06 06:42:49;;;;;;;;;;;;;;;-147.53;100.00;59759.91;4846883;29;19916;-85
2021/01/06 06:45:21;;;;;;;;;;;;;;;-147.53;100.00;59759.91;4863329;29;19916;-85
2021/01/06 06:47:49;;;;;;;;;;;;;;;-147.53;100.00;59759.91;4846884;29;19920;-86
2021/01/06 06:50:17;;;;;;;;;;;;;;;-147.53;100.00;59759.91;4846967;29;20010;-84
2021/01/06 06:52:51;;;;;;;;;;;;;;;-147.53;100.00;59759.91;4841618;29;19944;-83
2021/01/06 06:55:29;;;;;;;;;;;;;;;-147.53;100.00;59759.91;4846121;29;19932;-85
2021/01/06 06:57:58;;;;;;;;;;;;;;;-147.53;100.00;59759.91;4859342;29;19920;-87
2021/01/06 07:00:25;;;;;;;;;;;;;;;-147.53;100.00;59759.91;4866981;29;19927;-85
2021/01/06 07:03:10;;;;;;;;;;;;;;;-147.53;100.00;59759.91;4866101;29;19916;-89
2021/01/06 07:05:41;;;;;;;;;;;;;;;-147.53;100.00;59759.91;4863314;29;20327;-87
2021/01/06 07:08:16;;;;;;;;;;;;;;;-147.53;100.00;59759.91;4862982;29;19924;-87
2021/01/06 07:10:43;;;;;;;;;;;;;;;-147.53;100.00;59759.91;4857888;29;19977;-89
2021/01/06 07:13:14;;;;;;;;;;;;;;;-147.53;100.00;59759.91;4847028;29;20386;-87
2021/01/06 07:15:42;;;;;;;;;;;;;;;-147.53;100.00;59759.91;4848333;29;19968;-86
2021/01/06 07:18:22;;;;;;;;;;;;;;;-147.53;100.00;59759.91;4847928;29;19919;-87
2021/01/06 07:20:47;;;;;;;;;;;;;;;-147.53;100.00;59759.91;4848209;29;20015;-89
2021/01/06 07:23:22;;;;;;;;;;;;;;;-147.53;100.00;59759.91;4848721;29;20370;-93
2021/01/06 07:25:55;;;;;;;;;;;;;;;-147.53;100.00;59759.91;4847892;29;19947;-86
2021/01/06 07:28:21;;;;;;;;;;;;;;;-147.53;100.00;59759.91;4852419;29;20007;-89
2021/01/06 07:30:49;;;;;;;;;;;;;;;-147.53;100.00;59759.91;4850554;29;19974;-93
2021/01/06 07:33:20;;;;;;;;;;;;;;;-147.53;100.00;59759.91;4838325;29;20007;-89
2021/01/06 07:35:46;;;;;;;;;;;;;;;-147.53;100.00;59759.91;4829821;29;19927;-90
2021/01/06 07:38:12;;;;;;;;;;;;;;;-147.53;100.00;59759.91;4833375;29;19916;-89
2021/01/06 07:40:41;;;;;;;;;;;;;;;-147.53;100.00;59759.91;4835899;29;19971;-90
2021/01/06 07:43:10;;;;;;;;;;;;;;;-147.53;100.00;59759.91;4849138;29;19962;-90
2021/01/06 07:45:40;;;;;;;;;;;;;;;-147.53;100.00;59759.91;4832549;29;19916;-89
2021/01/06 07:48:45;;;;;;;;;;;;;;;-147.53;100.00;59759.91;4838880;29;19923;-89
2021/01/06 07:51:16;;;;;;;;;;;;;;;-147.53;100.00;59759.91;4841382;29;19916;-85
2021/01/06 07:53:59;;;;;;;;;;;;;;;-147.53;100.00;59759.91;4840191;29;20355;-87
2021/01/06 07:56:27;;;;;;;;;;;;;;;-147.53;100.00;59759.91;4846272;29;19920;-84
2021/01/06 07:58:55;;;;;;;;;;;;;;;-147.53;100.00;59759.91;4844568;29;19976;-89
2021/01/06 08:01:40;;;;;;;;;;;;;;;-147.53;100.00;59759.91;4857980;29;19920;-91
2021/01/06 08:07:21;;;;;;;;;;;;;;;-147.53;100.00;59759.91;4888252;23;19931;-94
2021/01/06 08:15:36;;;;;;;;;;;;;;;-147.53;100.00;59759.91;4906924;23;19931;-93
2021/01/06 08:18:21;;;;;;;;;;;;;;;-147.53;100.00;59759.91;4862667;23;19924;-94
2021/01/06 08:20:49;;;;;;;;;;;;;;;-147.53;100.00;59759.91;4851674;23;20641;-95
2021/01/06 08:23:39;;;;;;;;;;;;;;;-147.53;100.00;59759.91;4844044;29;19927;-95
2021/01/06 08:31:47;;;;;;;;;;;;;;;-147.53;100.00;59759.91;4855370;23;19973;-95
2021/01/06 08:34:41;;;;;;;;;;;;;;;-147.53;100.00;59759.91;4845608;29;19926;-90
2021/01/06 08:37:12;;;;;;;;;;;;;;;-147.53;100.00;59759.91;4816680;29;19923;-92
2021/01/06 08:39:39;;;;;;;;;;;;;;;-147.53;100.00;59759.91;4827916;29;20036;-92
2021/01/06 08:42:10;;;;;;;;;;;;;;;-147.53;100.00;59759.91;4830145;29;20023;-89
2021/01/06 08:44:48;;;;;;;;;;;;;;;-147.53;100.00;59759.91;4849238;23;20007;-91
2021/01/06 08:47:30;;;;;;;;;;;;;;;-147.53;100.00;59759.91;4810332;29;19925;-91
2021/01/06 08:50:33;;;;;;;;;;;;;;;-147.53;100.00;59759.91;4831005;29;19944;-90
2021/01/06 08:53:29;;;;;;;;;;;;;;;-147.53;100.00;59759.91;4844672;29;19912;-90
2021/01/06 08:56:03;;;;;;;;;;;;;;;-147.53;100.00;59759.91;4821375;29;19928;-91
2021/01/06 08:58:49;;;;;;;;;;;;;;;-147.53;100.00;59759.91;4833532;29;20374;-91
2021/01/06 09:01:33;;;;;;;;;;;;;;;-147.53;100.00;59759.91;4816573;29;19920;-93
2021/01/06 09:04:02;;;;;;;;;;;;;;;-147.53;100.00;59759.91;4816901;29;19916;-89
2021/01/06 09:06:28;;;;;;;;;;;;;;;-147.53;100.00;59759.91;4819770;29;19945;-87
2021/01/06 09:08:54;;;;;;;;;;;;;;;-147.53;100.00;59759.91;4834703;29;20371;-86
2021/01/06 09:11:31;;;;;;;;;;;;;;;-147.53;100.00;59759.91;4814043;29;19928;-87
2021/01/06 09:14:00;;;;;;;;;;;;;;;-147.53;100.00;59759.91;4813708;29;20290;-86
2021/01/06 09:16:38;;;;;;;;;;;;;;;-147.53;100.00;59759.91;4813777;29;20050;-84
2021/01/06 09:19:13;;;;;;;;;;;;;;;-147.53;100.00;59759.91;4813919;29;20019;-86
2021/01/06 09:21:39;;;;;;;;;;;;;;;-147.53;100.00;59759.91;4837203;29;19916;-86
2021/01/06 09:24:10;;;;;;;;;;;;;;;-147.53;100.00;59759.91;4821785;29;19955;-85
2021/01/06 09:26:37;;;;;;;;;;;;;;;-147.53;100.00;59759.91;4820935;29;19917;-86
2021/01/06 09:29:08;;;;;;;;;;;;;;;-147.53;100.00;59759.91;4824798;29;21252;-85
2021/01/06 09:31:40;;;;;;;;;;;;;;;-147.53;100.00;59759.91;4832130;29;19921;-86
2021/01/06 09:34:06;;;;;;;;;;;;;;;-147.53;100.00;59759.91;4829975;29;19917;-86
2021/01/06 09:36:31;;;;;;;;;;;;;;;-147.53;100.00;59759.91;4813892;29;19916;-88
2021/01/06 09:38:57;;;;;;;;;;;;;;;-147.53;100.00;59759.91;4827166;29;19932;-86
2021/01/06 09:41:26;;;;;;;;;;;;;;;-147.53;100.00;59759.91;4833831;29;19959;-87
2021/01/06 09:43:56;;;;;;;;;;;;;;;-147.53;100.00;59759.91;4844798;29;19916;-86
2021/01/06 09:46:27;;;;;;;;;;;;;;;-147.53;100.00;59759.91;4848245;29;19925;-88
2021/01/06 09:48:57;;;;;;;;;;;;;;;-147.53;100.00;59759.91;4848708;29;19964;-86
2021/01/06 09:51:23;;;;;;;;;;;;;;;-147.53;100.00;59759.91;4831638;29;20600;-86
2021/01/06 09:53:50;;;;;;;;;;;;;;;-147.53;100.00;59759.91;4831680;29;19917;-86
2021/01/06 09:56:18;;;;;;;;;;;;;;;-147.53;100.00;59759.91;4830967;29;20316;-86
2021/01/06 09:58:46;;;;;;;;;;;;;;;-147.53;100.00;59759.91;4819401;29;20357;-85
2021/01/06 10:01:16;;;;;;;;;;;;;;;-147.53;100.00;59759.91;4828420;29;20371;-86
2021/01/06 10:03:43;;;;;;;;;;;;;;;-147.53;100.00;59759.91;4862615;29;19916;-86
2021/01/06 10:06:18;;;;;;;;;;;;;;;-147.53;100.00;59759.91;4828743;29;19920;-85
2021/01/06 10:08:46;;;;;;;;;;;;;;;-147.53;100.00;59759.91;4829154;29;19927;-87
2021/01/06 10:11:25;;;;;;;;;;;;;;;-147.53;100.00;59759.91;4835785;29;19976;-88
2021/01/06 10:14:06;;;;;;;;;;;;;;;-147.53;100.00;59759.91;4831957;29;19916;-88
2021/01/06 10:16:35;;;;;;;;;;;;;;;-147.53;100.00;59759.91;4838030;29;19924;-88
2021/01/06 10:19:23;;;;;;;;;;;;;;;-147.53;100.00;59759.91;4833240;29;19932;-88
2021/01/06 10:21:58;;;;;;;;;;;;;;;-147.53;100.00;59759.91;4837566;29;19916;-88
2021/01/06 10:24:23;;;;;;;;;;;;;;;-147.53;100.00;59759.91;4842534;29;19917;-88
2021/01/06 10:27:04;;;;;;;;;;;;;;;-147.53;100.00;59759.91;4833537;29;20367;-89
2021/01/06 10:29:43;;;;;;;;;;;;;;;-147.53;100.00;59759.91;4817231;29;20000;-91
2021/01/06 10:32:44;;;;;;;;;;;;;;;-147.53;100.00;59759.91;4834665;29;19937;-91
2021/01/06 10:35:28;;;;;;;;;;;;;;;-147.53;100.00;59759.91;4838817;29;19917;-89
2021/01/06 10:37:54;;;;;;;;;;;;;;;-147.53;100.00;59759.91;4816499;29;19973;-84
2021/01/06 10:40:24;;;;;;;;;;;;;;;-147.53;100.00;59759.91;4828854;29;19983;-87
2021/01/06 10:42:53;;;;;;;;;;;;;;;-147.53;100.00;59759.91;4819248;29;19921;-87
2021/01/06 10:45:24;;;;;;;;;;;;;;;-147.53;100.00;59759.91;4843160;29;20457;-87
2021/01/06 10:47:50;;;;;;;;;;;;;;;-147.53;100.00;59759.91;4828822;29;20359;-87
2021/01/06 10:50:28;;;;;;;;;;;;;;;-147.53;100.00;59759.91;4835407;29;20375;-88
2021/01/06 10:53:15;;;;;;;;;;;;;;;-147.53;100.00;59759.91;4835767;29;20066;-90
2021/01/06 10:56:00;;;;;;;;;;;;;;;-147.53;100.00;59759.91;4811811;29;19921;-88
2021/01/06 10:58:42;;;;;;;;;;;;;;;-147.53;100.00;59759.91;4829709;29;19947;-88
2021/01/06 11:01:10;;;;;;;;;;;;;;;-147.53;100.00;59759.91;4846347;29;20039;-90
2021/01/06 11:03:57;;;;;;;;;;;;;;;-147.53;100.00;59759.91;4818929;29;19920;-91
2021/01/06 11:06:22;;;;;;;;;;;;;;;-147.53;100.00;59759.91;4834709;29;19976;-88
2021/01/06 11:08:53;;;;;;;;;;;;;;;-147.53;100.00;59759.91;4821169;29;19974;-89
2021/01/06 11:11:46;;;;;;;;;;;;;;;-147.53;100.00;59759.91;4825968;29;19972;-91
2021/01/06 11:14:22;;;;;;;;;;;;;;;-147.53;100.00;59759.91;4851519;29;20340;-89
2021/01/06 11:17:39;;;;;;;;;;;;;;;-147.53;100.00;59759.91;4837884;29;19927;-93
2021/01/06 11:26:31;;;;;;;;;;;;;;;-147.53;100.00;59759.91;4871880;23;20322;-88
2021/01/06 11:29:15;;;;;;;;;;;;;;;-147.53;100.00;59759.91;4846374;29;19921;-89
2021/01/06 11:31:42;;;;;;;;;;;;;;;-147.53;100.00;59759.91;4843239;29;19955;-89
2021/01/06 11:34:07;;;;;;;;;;;;;;;-147.53;100.00;59759.91;4843716;29;19927;-87
2021/01/06 11:36:51;;;;;;;;;;;;;;;-147.53;100.00;59759.91;4844591;29;19916;-89
2021/01/06 11:39:34;;;;;;;;;;;;;;;-147.53;100.00;59759.91;4844412;29;19916;-87
2021/01/06 11:42:05;;;;;;;;;;;;;;;-147.53;100.00;59759.91;4844388;29;19977;-88
2021/01/06 11:44:51;;;;;;;;;;;;;;;-147.53;100.00;59759.91;4841784;29;19912;-88
2021/01/06 11:47:20;;;;;;;;;;;;;;;-147.53;100.00;59759.91;4827119;29;19970;-87
2021/01/06 11:49:51;;;;;;;;;;;;;;;-147.53;100.00;59759.91;4843180;29;19924;-85
2021/01/06 11:52:25;;;;;;;;;;;;;;;-147.53;100.00;59759.91;4826597;29;19956;-85
2021/01/06 11:54:53;;;;;;;;;;;;;;;-147.53;100.00;59759.91;4843566;29;19991;-86
2021/01/06 11:57:24;;;;;;;;;;;;;;;-147.53;100.00;59759.91;4822229;29;20016;-86
2021/01/06 12:00:13;;;;;;;;;;;;;;;-147.53;100.00;59759.91;4845017;29;19920;-86
2021/01/06 12:02:41;;;;;;;;;;;;;;;-147.53;100.00;59759.91;4820469;29;19924;-87
2021/01/06 12:05:09;;;;;;;;;;;;;;;-147.53;100.00;59759.91;4814600;29;19952;-86
2021/01/06 12:07:40;;;;;;;;;;;;;;;-147.53;100.00;59759.91;4842491;29;19986;-86
2021/01/06 12:10:11;;;;;;;;;;;;;;;-147.53;100.00;59759.91;4843130;29;19916;-85
2021/01/06 12:12:43;;;;;;;;;;;;;;;-147.53;100.00;59759.91;4826971;29;19923;-87
2021/01/06 12:15:27;;;;;;;;;;;;;;;-147.53;100.00;59759.91;4826606;29;20300;-87
2021/01/06 12:17:56;;;;;;;;;;;;;;;-147.53;100.00;59759.91;4822174;29;19920;-87
2021/01/06 12:20:24;;;;;;;;;;;;;;;-147.53;100.00;59759.91;4825774;29;20355;-87
2021/01/06 12:23:09;;;;;;;;;;;;;;;-147.53;100.00;59759.91;4826339;29;20414;-86
2021/01/06 12:25:55;;;;;;;;;;;;;;;-147.53;100.00;59759.91;4844575;29;19960;-92
2021/01/06 12:31:47;;;;;;;;;;;;;;;-147.53;100.00;59759.91;4959272;23;19931;-93
2021/01/06 12:34:15;;;;;;;;;;;;;;;-147.53;100.00;59759.91;4823772;29;19999;-88
2021/01/06 12:36:59;;;;;;;;;;;;;;;-147.53;100.00;59759.91;4830143;29;19956;-85
2021/01/06 12:39:32;;;;;;;;;;;;;;;-147.53;100.00;59759.91;4814903;29;19960;-91
2021/01/06 12:44:29;;;;;;;;;;;;;;;-147.53;100.00;59759.91;5162127;23;19914;-89
2021/01/06 12:47:05;;;;;;;;;;;;;;;-147.53;100.00;59759.91;4844895;29;19953;-88
2021/01/06 12:49:44;;;;;;;;;;;;;;;-147.53;100.00;59759.91;4850269;29;19926;-89
2021/01/06 12:52:09;;;;;;;;;;;;;;;-147.53;100.00;59759.91;4845327;29;19916;-84
2021/01/06 12:54:37;;;;;;;;;;;;;;;-147.53;100.00;59759.91;4844448;29;19952;-86
2021/01/06 12:57:11;;;;;;;;;;;;;;;-147.53;100.00;59759.91;4845847;29;19916;-87
2021/01/06 12:59:46;;;;;;;;;;;;;;;-147.53;100.00;59759.91;4845247;29;19926;-88
2021/01/06 13:02:41;;;;;;;;;;;;;;;-147.53;100.00;59759.91;4861419;29;19940;-91
2021/01/06 13:05:27;;;;;;;;;;;;;;;-147.53;100.00;59759.91;4848211;29;19924;-88